createdAt,value
2022-09-06T00:14:16.252Z,84.6
2022-09-06T00:34:16.278Z,83.8
2022-09-06T01:14:16.232Z,85.9
2022-09-06T01:34:16.162Z,85.8
2022-09-06T01:54:16.193Z,85.7
2022-09-06T02:14:16.106Z,85.6
2022-09-06T02:34:16.132Z,86.7
2022-09-06T02:54:16.063Z,84.6
2022-09-06T03:14:16.084Z,86.6
2022-09-06T03:34:16.019Z,86.2
2022-09-06T03:54:16.031Z,86.3
2022-09-06T04:14:16.056Z,86.7
2022-09-06T04:34:15.983Z,85.2
2022-09-06T04:54:16.007Z,86.6
2022-09-06T05:14:15.929Z,87.8
2022-09-06T05:34:15.952Z,87.6
2022-09-06T05:54:15.881Z,87.2
2022-09-06T06:14:15.962Z,86.5
2022-09-06T06:34:15.824Z,84.9
2022-09-06T06:54:15.849Z,83.5
2022-09-06T07:14:15.780Z,79.9
2022-09-06T07:34:15.799Z,76.3
2022-09-06T07:54:15.721Z,75.4
2022-09-06T08:14:15.749Z,73.9
2022-09-06T08:34:15.675Z,72.2
2022-09-06T08:54:15.702Z,72.1
2022-09-06T09:14:15.627Z,71.3
2022-09-06T09:34:15.661Z,71.3
2022-09-06T09:54:15.581Z,61.5
2022-09-06T10:14:15.610Z,62.6
2022-09-06T10:34:15.533Z,61.1
2022-09-06T10:54:15.468Z,58.5
2022-09-06T11:14:15.495Z,58.3
2022-09-06T11:34:15.420Z,54.6
2022-09-06T11:54:15.456Z,54.8
2022-09-06T12:14:15.338Z,61.8
2022-09-06T12:34:15.374Z,57.8
2022-09-06T12:54:15.303Z,56.2
2022-09-06T13:14:15.238Z,58.8
2022-09-06T13:34:15.274Z,57.1
2022-09-06T13:54:15.207Z,57.4
2022-09-06T14:14:15.243Z,58.3
2022-09-06T14:34:15.185Z,58.6
2022-09-06T14:54:15.118Z,56.7
2022-09-06T15:14:15.059Z,57.2
2022-09-06T15:34:15.112Z,60.1
2022-09-06T15:54:15.038Z,61.1
2022-09-06T16:14:14.980Z,67.4
2022-09-06T16:34:15.027Z,66.7
2022-09-06T16:54:14.958Z,71.6
2022-09-06T17:14:14.890Z,70.5
2022-09-06T17:34:14.926Z,77.2
2022-09-06T17:54:14.859Z,75.6
2022-09-06T18:14:14.897Z,75.9
2022-09-06T18:34:14.820Z,76.7
2022-09-06T18:54:14.769Z,79.2
2022-09-06T19:14:14.786Z,83.0
2022-09-06T19:34:14.720Z,82.7
2022-09-06T19:54:14.749Z,83.0
2022-09-06T20:34:14.646Z,82.0
2022-09-06T20:54:14.638Z,83.6
2022-09-06T21:14:14.578Z,84.1
2022-09-06T21:34:14.608Z,81.6
2022-09-06T21:54:14.536Z,82.5
2022-09-06T22:14:14.559Z,81.8
2022-09-06T22:34:14.495Z,82.6
2022-09-06T22:54:14.521Z,84.3
2022-09-06T23:14:14.448Z,84.6
2022-09-06T23:34:14.377Z,84.1
2022-09-06T23:54:14.401Z,84.9
